Portada
METAR-TAF:

METAR-TAF

Aeroports :

Ponce, Puerto Rico, Estats Units d'Amèrica

latitud: 18-01N, longitud: 066-34W, altitud: 8 m

METAR: manca

Hora: 02:46 (06:46 UTC)

Pronòstic

L'informe es va fer fa 1 hora i 26 minuts, a les 05:20 UTC
Pronòstic vàlid del 27 a les 06 UTC al 28 a les 06 UTC
Vent 5 kt amb direcció variable
Visibilitat: 10 km
Escasses núvols a una alçada de 2500 ft
A partir de les 27 a les 1400 UTC
Vent 13 kt del Sud-Est
Visibilitat: 10 km
Núvols disperses a una alçada de 3000 ft
A partir de les 27 a les 2200 UTC
Vent 6 kt amb direcció variable
Visibilitat: 10 km
Escasses núvols a una alçada de 6000 ft

TAF: TJPS 270520Z 2706/2806 VRB05KT P6SM FEW025 FM271400 13013KT P6SM SCT030 FM272200 VRB06KT P6SM FEW060

Observacions i pronòstics meteorològics de més de 4000 aeroports (METAR i TAF).

Les estacions disponibles són els punts grocs i vermells al mapa.

Posi el ratolí al punt desitjat per veure el nom de l'estació.

Feu clic per veure les observacions i els pronòstics meteorològics.

Per canviar el mapa: feu clic els botons verds amb una creu de color negre per apropar; al botó verd amb un guió per allunyar la imatge; o en les fletxes verdes per a mapes adjacents.


METAR-TAF: